Dades meteomassalio
Diari Summary for Febrer 6, 2017 Units:  Metric    English   Both
« Previous Day
Next Day »
Diari Semanal Mensual Anual Personalitzat
  Maxima: Minima: Mijana:
Temperatura: -17.8 °C -14.2 °C -12 °C
Rosada: -17.8 °C -17.4 °C -15.3 °C
Humitat: Humidity % 62 % 67 %
Velocitat del vent: 0 km/h 29.8 km/h 63.2 km/h
Racha vent: 0 km/h - -
Vent:- - NW
Pressio: 0 hPa 34510.1 hPa -
Pluja: 0 mm    
Historical Graphs
 
 
Tabular Data for Febrer 6, 2017
Time Temperature Dew Point Pressure Wind Wind Speed Wind Gust Humidity Rainfall Rate (Hourly) solar Conditions
-17.8 °C -17.8 °C 0 hPa Calm     Humidity % 0 mm SolarRadiationWatts/m^2 W/m2 Conditions
00:03 -13.8 °C -17.4 °C 34611.7 hPa NW 74.5 km/h 74.5 km/h 63 % 0 mm 0.0 W/m2 RA
00:08 -13.7 °C -17.4 °C 34611.7 hPa NW 74.5 km/h 74.5 km/h 63 % 0 mm 0.0 W/m2 CLR
00:13 -13.7 °C -17.3 °C 34601.5 hPa NW 74.5 km/h 74.5 km/h 63 % 0 mm 0.0 W/m2 CLR
00:18 -13.7 °C -17.3 °C 34601.5 hPa NW 77.4 km/h 77.4 km/h 63 % 0 mm 0.0 W/m2 CLR
00:23 -13.8 °C -17.3 °C 34601.5 hPa NW 74.5 km/h 74.5 km/h 64 % 0 mm 0.0 W/m2 CLR
00:28 -13.8 °C -17.2 °C 34611.7 hPa NW 67.3 km/h 67.3 km/h 65 % 0 mm 0.0 W/m2 CLR
00:33 -13.8 °C -17.2 °C 34611.7 hPa NW 62.6 km/h 62.6 km/h 65 % 0 mm 0.0 W/m2 CLR
00:38 -13.8 °C -17.2 °C 34611.7 hPa NW 68.6 km/h 68.6 km/h 65 % 0 mm 0.0 W/m2 CLR
00:43 -13.8 °C -17.1 °C 34611.7 hPa NW 57 km/h 57 km/h 66 % 0 mm 0.0 W/m2 CLR
00:48 -13.8 °C -17.2 °C 34611.7 hPa NW 71.5 km/h 71.5 km/h 66 % 0 mm 0.0 W/m2 CLR
00:53 -13.8 °C -17.1 °C 34625.2 hPa NW 71.5 km/h 71.5 km/h 66 % 0 mm 0.0 W/m2 CLR
00:58 -13.8 °C -17.1 °C 34625.2 hPa NNW 68.6 km/h 68.6 km/h 66 % 0 mm 0.0 W/m2 CLR
01:03 -13.8 °C -17.1 °C 34625.2 hPa NW 77.4 km/h 77.4 km/h 67 % 0 mm 0.0 W/m2 CLR
01:08 -13.9 °C -17.1 °C 34625.2 hPa NW 54.4 km/h 54.4 km/h 67 % 0 mm 0.0 W/m2 CLR
01:13 -14 °C -17.1 °C 34625.2 hPa NW 64.7 km/h 64.7 km/h 68 % 0 mm 0.0 W/m2 CLR
01:18 -13.9 °C -17 °C 34625.2 hPa NW 50.7 km/h 50.7 km/h 68 % 0 mm 0.0 W/m2 CLR
01:23 -13.9 °C -16.9 °C 34625.2 hPa NW 50.7 km/h 50.7 km/h 68 % 0 mm 0.0 W/m2 CLR
01:28 -13.9 °C -16.9 °C 34625.2 hPa NW 62.6 km/h 62.6 km/h 68 % 0 mm 0.0 W/m2 CLR
01:33 -13.8 °C -17.1 °C 34625.2 hPa NW 53.6 km/h 53.6 km/h 67 % 0 mm 0.0 W/m2 CLR
01:38 -13.8 °C -16.9 °C 34625.2 hPa NW 56.6 km/h 56.6 km/h 68 % 0 mm 0.0 W/m2 CLR
01:43 -13.9 °C -17.1 °C 34611.7 hPa NW 68.6 km/h 68.6 km/h 67 % 0 mm 0.0 W/m2 CLR
01:48 -13.9 °C -17 °C 34625.2 hPa NW 47.6 km/h 47.6 km/h 68 % 0 mm 0.0 W/m2 CLR
01:53 -13.9 °C -17 °C 34625.2 hPa NW 62.1 km/h 62.1 km/h 68 % 0 mm 0.0 W/m2 CLR
01:58 -13.9 °C -17 °C 34625.2 hPa NW 68.6 km/h 68.6 km/h 68 % 0 mm 0.0 W/m2 CLR
02:03 -13.9 °C -16.9 °C 34625.2 hPa NW 56.6 km/h 56.6 km/h 69 % 0 mm 0.0 W/m2 CLR
02:08 -13.9 °C -16.8 °C 34625.2 hPa NW 68.6 km/h 68.6 km/h 69 % 0 mm 0.0 W/m2 CLR
02:13 -13.8 °C -16.9 °C 34635.4 hPa NW 68.6 km/h 68.6 km/h 68 % 0 mm 0.0 W/m2
02:18 -13.8 °C -16.8 °C 34635.4 hPa NW 50.7 km/h 50.7 km/h 69 % 0 mm 0.0 W/m2 CLR
02:23 -13.8 °C -16.8 °C 34635.4 hPa NW 80.5 km/h 80.5 km/h 69 % 0 mm 0.0 W/m2 CLR
02:28 -13.8 °C -16.8 °C 34635.4 hPa NW 53.6 km/h 53.6 km/h 69 % 0 mm 0.0 W/m2 CLR
02:33 -13.8 °C -16.8 °C 34635.4 hPa NW 101.2 km/h 101.2 km/h 69 % 0 mm 0.0 W/m2
02:38 -13.8 °C -16.7 °C 34635.4 hPa NW 89.3 km/h 89.3 km/h 69 % 0 mm 0.0 W/m2 CLR
02:43 -13.8 °C -16.7 °C 34635.4 hPa NW 89.3 km/h 89.3 km/h 69 % 0 mm 0.0 W/m2 CLR
02:48 -13.8 °C -16.6 °C 34635.4 hPa NW 88 km/h 88 km/h 70 % 0 mm 0.0 W/m2 CLR
02:53 -13.8 °C -16.7 °C 34635.4 hPa NW 74.5 km/h 74.5 km/h 70 % 0 mm 0.0 W/m2 CLR
02:58 -13.9 °C -16.7 °C 34635.4 hPa NW 65.5 km/h 65.5 km/h 70 % 0 mm 0.0 W/m2 CLR
03:03 -13.9 °C -16.6 °C 34635.4 hPa NW 74.5 km/h 74.5 km/h 71 % 0 mm 0.0 W/m2 CLR
03:08 -13.9 °C -16.8 °C 34645.6 hPa NW 71.5 km/h 71.5 km/h 70 % 0 mm 0.0 W/m2 CLR
03:14 -13.9 °C -16.6 °C 34645.6 hPa NW 59.5 km/h 59.5 km/h 71 % 0 mm 0.0 W/m2 CLR
03:19 -13.9 °C -16.7 °C 34645.6 hPa NW 65.5 km/h 65.5 km/h 71 % 0 mm 0.0 W/m2 CLR
03:24 -13.9 °C -16.6 °C 34659.1 hPa NW 86.4 km/h 86.4 km/h 71 % 0 mm 0.0 W/m2 CLR
03:29 -13.9 °C -16.6 °C 34659.1 hPa NW 65.5 km/h 65.5 km/h 71 % 0 mm 0.0 W/m2 CLR
03:34 -13.9 °C -16.7 °C 34659.1 hPa NW 67.3 km/h 67.3 km/h 71 % 0 mm 0.0 W/m2 CLR
03:39 -14 °C -16.6 °C 34659.1 hPa NW 59.5 km/h 59.5 km/h 72 % 0 mm 0.0 W/m2 CLR
03:44 -14.1 °C -16.7 °C 34659.1 hPa NW 51.8 km/h 51.8 km/h 72 % 0 mm 0.0 W/m2 CLR
03:49 -14.1 °C -16.7 °C 34659.1 hPa NW 57 km/h 57 km/h 72 % 0 mm 0.0 W/m2 CLR
03:54 -14.1 °C -16.7 °C 34645.6 hPa NW 50.7 km/h 50.7 km/h 72 % 0 mm 0.0 W/m2 CLR
03:59 -14.2 °C -16.8 °C 34659.1 hPa NW 62.6 km/h 62.6 km/h 72 % 0 mm 0.0 W/m2 CLR
04:04 -14.2 °C -16.8 °C 34645.6 hPa WNW 53.6 km/h 53.6 km/h 72 % 0 mm 0.0 W/m2 CLR
04:09 -14.2 °C -16.8 °C 34645.6 hPa NW 38.8 km/h 38.8 km/h 72 % 0 mm 0.0 W/m2 CLR
04:14 -14.1 °C -16.8 °C 34645.6 hPa NW 67.3 km/h 67.3 km/h 71 % 0 mm 0.0 W/m2 CLR
04:19 -14.1 °C -16.8 °C 34645.6 hPa NW 71.5 km/h 71.5 km/h 71 % 0 mm 0.0 W/m2 CLR
04:24 -14 °C -16.7 °C 34659.1 hPa NW 68.6 km/h 68.6 km/h 71 % 0 mm 0.0 W/m2 CLR
04:29 -14 °C -16.8 °C 34659.1 hPa NW 68.6 km/h 68.6 km/h 70 % 0 mm 0.0 W/m2 CLR
04:34 -13.9 °C -16.8 °C 34659.1 hPa NW 62.6 km/h 62.6 km/h 70 % 0 mm 0.0 W/m2 CLR
04:44 -13.9 °C -16.8 °C 34659.1 hPa NW 56.6 km/h 56.6 km/h 70 % 0 mm 0.0 W/m2 CLR
04:49 -13.9 °C -16.8 °C 34669.3 hPa NW 68.6 km/h 68.6 km/h 70 % 0 mm 0.0 W/m2 CLR
04:54 -13.9 °C -16.7 °C 34669.3 hPa NW 59.5 km/h 59.5 km/h 70 % 0 mm 0.0 W/m2 CLR
04:59 -13.8 °C -16.8 °C 34669.3 hPa NW 56.6 km/h 56.6 km/h 69 % 0 mm 0.0 W/m2 CLR
05:04 -13.8 °C -16.8 °C 34659.1 hPa NW 50.7 km/h 50.7 km/h 69 % 0 mm 0.0 W/m2 CLR
05:09 -13.8 °C -16.8 °C 34669.3 hPa NW 74.5 km/h 74.5 km/h 69 % 0 mm 0.0 W/m2 CLR
05:14 -13.8 °C -16.8 °C 34659.1 hPa NW 53.6 km/h 53.6 km/h 69 % 0 mm 0.0 W/m2 CLR
05:19 -13.8 °C -16.8 °C 34659.1 hPa NW 68.6 km/h 68.6 km/h 68 % 0 mm 0.0 W/m2 CLR
05:24 -13.8 °C -16.8 °C 34669.3 hPa NW 56.6 km/h 56.6 km/h 68 % 0 mm 0.0 W/m2 CLR
05:29 -13.8 °C -16.8 °C 34659.1 hPa NNW 65.5 km/h 65.5 km/h 68 % 0 mm 0.0 W/m2 CLR
05:34 -13.8 °C -16.8 °C 34659.1 hPa NNW 62.1 km/h 62.1 km/h 68 % 0 mm 0.0 W/m2 CLR
05:39 -13.8 °C -16.8 °C 34659.1 hPa NW 77.4 km/h 77.4 km/h 68 % 0 mm 0.0 W/m2 CLR
05:44 -13.8 °C -16.8 °C 34659.1 hPa NW 80.5 km/h 80.5 km/h 68 % 0 mm 0.0 W/m2 CLR
05:49 -13.8 °C -16.8 °C 34669.3 hPa NW 86.4 km/h 86.4 km/h 68 % 0 mm 0.0 W/m2 CLR
05:54 -13.8 °C -16.8 °C 34669.3 hPa NW 71.5 km/h 71.5 km/h 69 % 0 mm 0.0 W/m2 CLR
05:59 -13.8 °C -16.8 °C 34669.3 hPa NW 74.5 km/h 74.5 km/h 69 % 0 mm 0.0 W/m2 CLR
06:04 -13.9 °C -16.8 °C 34669.3 hPa NW 59.5 km/h 59.5 km/h 69 % 0 mm 0.0 W/m2 CLR
06:09 -13.8 °C -16.8 °C 34669.3 hPa NW 65.5 km/h 65.5 km/h 69 % 0 mm 0.0 W/m2 CLR
06:14 -13.8 °C -16.8 °C 34669.3 hPa NW 68.6 km/h 68.6 km/h 69 % 0 mm 0.0 W/m2 CLR
06:19 -13.9 °C -16.7 °C 34669.3 hPa NW 56.6 km/h 56.6 km/h 70 % 0 mm 0.0 W/m2 CLR
06:24 -13.9 °C -16.8 °C 34669.3 hPa NW 68.6 km/h 68.6 km/h 70 % 0 mm 0.0 W/m2 CLR
06:29 -13.9 °C -16.8 °C 34682.8 hPa NW 56.6 km/h 56.6 km/h 70 % 0 mm 0.0 W/m2 CLR
06:34 -13.9 °C -16.6 °C 34682.8 hPa NW 56.6 km/h 56.6 km/h 71 % 0 mm 0.0 W/m2 CLR
06:39 -13.9 °C -16.7 °C 34682.8 hPa NW 62.6 km/h 62.6 km/h 70 % 0 mm 0.0 W/m2 CLR
06:44 -13.8 °C -16.7 °C 34693 hPa NW 56.6 km/h 56.6 km/h 70 % 0 mm 0.0 W/m2 CLR
06:49 -13.8 °C -16.7 °C 34693 hPa NW 46.7 km/h 46.7 km/h 70 % 0 mm 0.0 W/m2 CLR
06:54 -13.8 °C -16.6 °C 34693 hPa NW 36.2 km/h 36.2 km/h 70 % 0 mm 0.0 W/m2 CLR
06:59 -13.7 °C -16.7 °C 34693 hPa NW 53.6 km/h 53.6 km/h 69 % 0 mm 0.0 W/m2 CLR
07:04 -13.7 °C -16.6 °C 34693 hPa NW 41.7 km/h 41.7 km/h 69 % 0 mm 0.0 W/m2 CLR
07:09 -13.7 °C -16.6 °C 34693 hPa NW 44.7 km/h 44.7 km/h 69 % 0 mm 0.0 W/m2 CLR
07:14 -13.7 °C -16.7 °C 34693 hPa NW 36.2 km/h 36.2 km/h 68 % 0 mm 0.0 W/m2 CLR
07:19 -13.7 °C -16.7 °C 34693 hPa NW 62.6 km/h 62.6 km/h 68 % 0 mm 0.0 W/m2 CLR
07:24 -13.6 °C -16.7 °C 34693 hPa NW 56.6 km/h 56.6 km/h 68 % 0 mm 0.0 W/m2 CLR
07:29 -13.6 °C -16.7 °C 34693 hPa NW 50.7 km/h 50.7 km/h 68 % 0 mm 0.0 W/m2 CLR
07:34 -13.7 °C -16.7 °C 34693 hPa NW 38.8 km/h 38.8 km/h 68 % 0 mm 0.0 W/m2 CLR
07:39 -13.6 °C -16.6 °C 34693 hPa NW 50.7 km/h 50.7 km/h 69 % 0 mm 0.0 W/m2 CLR
07:44 -13.6 °C -16.6 °C 34693 hPa NW 56.6 km/h 56.6 km/h 69 % 0 mm 0.0 W/m2 CLR
07:49 -13.7 °C -16.6 °C 34693 hPa NW 62.6 km/h 62.6 km/h 69 % 0 mm 0.0 W/m2 CLR
07:54 -13.6 °C -16.6 °C 34693 hPa NW 68.6 km/h 68.6 km/h 68 % 0 mm 0.0 W/m2 CLR
07:59 -13.6 °C -16.7 °C 34682.8 hPa NW 56.6 km/h 56.6 km/h 67 % 0 mm 0.0 W/m2 CLR
08:04 -13.5 °C -16.7 °C 34682.8 hPa NW 65.5 km/h 65.5 km/h 67 % 0 mm 0.0 W/m2 OVC
08:09 -13.6 °C -16.7 °C 34682.8 hPa NW 69.8 km/h 69.8 km/h 67 % 0 mm 5.0 W/m2 OVC
08:14 -13.6 °C -16.8 °C 34682.8 hPa NW 50.7 km/h 50.7 km/h 67 % 0 mm 5.0 W/m2 OVC
08:19 -13.6 °C -16.8 °C 34682.8 hPa NW 56.6 km/h 56.6 km/h 67 % 0 mm 9.0 W/m2 BKN
08:24 -13.7 °C -16.7 °C 34682.8 hPa NW 62.6 km/h 62.6 km/h 68 % 0 mm 14.0 W/m2 BKN
08:29 -13.6 °C -16.7 °C 34669.3 hPa NW 68.6 km/h 68.6 km/h 68 % 0 mm 19.0 W/m2 BKN
08:34 -13.5 °C -16.7 °C 34669.3 hPa NW 71.5 km/h 71.5 km/h 67 % 0 mm 26.0 W/m2 BKN
08:39 -13.4 °C -16.6 °C 34669.3 hPa WNW 69.8 km/h 69.8 km/h 67 % 0 mm 35.0 W/m2 BKN
08:45 -13.4 °C -16.6 °C 34669.3 hPa NW 59.5 km/h 59.5 km/h 67 % 0 mm 42.0 W/m2 BKN
08:50 -13.4 °C -16.6 °C 34659.1 hPa NW 71.5 km/h 71.5 km/h 67 % 0 mm 32.0 W/m2 BKN
08:55 -13.4 °C -16.7 °C 34659.1 hPa NW 53.6 km/h 53.6 km/h 66 % 0 mm 46.0 W/m2 BKN
09:00 -13.4 °C -16.7 °C 34659.1 hPa NW 75.2 km/h 75.2 km/h 66 % 0 mm 47.0 W/m2 BKN
09:05 -13.4 °C -16.7 °C 34659.1 hPa NW 77.4 km/h 77.4 km/h 66 % 0 mm 39.0 W/m2 BKN
09:10 -13.4 °C -16.7 °C 34669.3 hPa NW 68.6 km/h 68.6 km/h 66 % 0 mm 35.0 W/m2 BKN
09:15 -13.4 °C -16.8 °C 34669.3 hPa NW 47.6 km/h 47.6 km/h 66 % 0 mm 37.0 W/m2 BKN
09:20 -13.5 °C -16.7 °C 34669.3 hPa NW 51.8 km/h 51.8 km/h 67 % 0 mm 46.0 W/m2 BKN
09:25 -13.5 °C -16.7 °C 34669.3 hPa WNW 41.4 km/h 41.4 km/h 67 % 0 mm 49.0 W/m2 SCT
09:30 -13.4 °C -16.6 °C 34669.3 hPa WNW 41.7 km/h 41.7 km/h 67 % 0 mm 127.0 W/m2 SCT
09:35 -13.3 °C -16.5 °C 34669.3 hPa WNW 38.8 km/h 38.8 km/h 67 % 0 mm 148.0 W/m2 FEW
09:40 -13.2 °C -16.3 °C 34669.3 hPa WNW 47.6 km/h 47.6 km/h 68 % 0 mm 221.0 W/m2 CLR
09:45 -13.1 °C -16.3 °C 34669.3 hPa WNW 65.5 km/h 65.5 km/h 67 % 0 mm 225.0 W/m2 CLR
09:50 -13.1 °C -16.5 °C 34669.3 hPa WNW 56.6 km/h 56.6 km/h 65 % 0 mm 244.0 W/m2 CLR
09:55 -13 °C -16.3 °C 34659.1 hPa WNW 50.7 km/h 50.7 km/h 66 % 0 mm 227.0 W/m2 CLR
10:00 -13 °C -16.3 °C 34659.1 hPa WNW 68.6 km/h 68.6 km/h 66 % 0 mm 239.0 W/m2 CLR
10:05 -13 °C -16.3 °C 34669.3 hPa NW 65.5 km/h 65.5 km/h 66 % 0 mm 265.0 W/m2 CLR
10:10 -12.9 °C -16.3 °C 34659.1 hPa WNW 50.7 km/h 50.7 km/h 66 % 0 mm 287.0 W/m2 CLR
10:15 -12.9 °C -16.1 °C 34659.1 hPa WNW 49.2 km/h 49.2 km/h 67 % 0 mm 302.0 W/m2 CLR
10:20 -12.8 °C -16.2 °C 34659.1 hPa WNW 56.6 km/h 56.6 km/h 66 % 0 mm 309.0 W/m2 CLR
10:25 -12.7 °C -16.2 °C 34659.1 hPa WNW 56.6 km/h 56.6 km/h 65 % 0 mm 327.0 W/m2 CLR
10:30 -12.7 °C -16.2 °C 34645.6 hPa WNW 65.5 km/h 65.5 km/h 65 % 0 mm 345.0 W/m2 CLR
10:35 -12.7 °C -16.1 °C 34645.6 hPa WNW 68.6 km/h 68.6 km/h 65 % 0 mm 360.0 W/m2 CLR
10:40 -12.6 °C -16.2 °C 34645.6 hPa WNW 74.5 km/h 74.5 km/h 64 % 0 mm 371.0 W/m2 CLR
10:45 -12.5 °C -16 °C 34645.6 hPa NW 68.6 km/h 68.6 km/h 65 % 0 mm 381.0 W/m2 CLR
10:50 -12.4 °C -16.1 °C 34635.4 hPa NW 77.4 km/h 77.4 km/h 64 % 0 mm 378.0 W/m2 CLR
10:55 -12.4 °C -15.9 °C 34635.4 hPa NW 72.6 km/h 72.6 km/h 65 % 0 mm 397.0 W/m2 CLR
11:00 -12.4 °C -15.9 °C 34645.6 hPa NW 50.7 km/h 50.7 km/h 65 % 0 mm 408.0 W/m2 CLR
11:05 -12.3 °C -15.8 °C 34635.4 hPa NW 50.7 km/h 50.7 km/h 65 % 0 mm 420.0 W/m2 CLR
11:10 -12.4 °C -16 °C 34635.4 hPa NW 71.5 km/h 71.5 km/h 64 % 0 mm 427.0 W/m2 CLR
11:15 -12.4 °C -15.9 °C 34635.4 hPa NW 74.5 km/h 74.5 km/h 65 % 0 mm 441.0 W/m2 CLR
11:20 -12.3 °C -15.8 °C 34635.4 hPa NW 69.8 km/h 69.8 km/h 65 % 0 mm 445.0 W/m2 CLR
11:25 -12.3 °C -15.8 °C 34635.4 hPa NW 71.5 km/h 71.5 km/h 65 % 0 mm 429.0 W/m2 CLR
11:30 -12.3 °C -15.8 °C 34635.4 hPa NW 59.5 km/h 59.5 km/h 65 % 0 mm 462.0 W/m2 CLR
11:35 -12.2 °C -15.7 °C 34635.4 hPa NW 59.5 km/h 59.5 km/h 65 % 0 mm 471.0 W/m2 CLR
11:40 -12.1 °C -15.6 °C 34645.6 hPa NW 29.8 km/h 29.8 km/h 65 % 0 mm 471.0 W/m2 CLR
11:45 -12 °C -15.7 °C 34645.6 hPa NW 77.4 km/h 77.4 km/h 63 % 0 mm 487.0 W/m2 CLR
11:50 -12.1 °C -15.5 °C 34645.6 hPa NW 68.6 km/h 68.6 km/h 65 % 0 mm 492.0 W/m2 CLR
11:55 -11.9 °C -15.6 °C 34645.6 hPa NW 68.6 km/h 68.6 km/h 64 % 0 mm 497.0 W/m2 CLR
12:00 -11.9 °C -15.4 °C 34635.4 hPa NW 68.6 km/h 68.6 km/h 65 % 0 mm 506.0 W/m2 CLR
12:05 -12 °C -15.6 °C 34635.4 hPa NW 74.5 km/h 74.5 km/h 64 % 0 mm 415.0 W/m2 CLR
12:10 -12 °C -15.6 °C 34635.4 hPa NW 71.5 km/h 71.5 km/h 64 % 0 mm 524.0 W/m2 CLR
12:15 -11.9 °C -15.4 °C 34625.2 hPa NW 56.6 km/h 56.6 km/h 65 % 0 mm 512.0 W/m2 CLR
12:20 -11.8 °C -15.4 °C 34625.2 hPa NW 74.5 km/h 74.5 km/h 64 % 0 mm 512.0 W/m2 CLR
12:25 -11.7 °C -15.2 °C 34611.7 hPa NW 50.7 km/h 50.7 km/h 65 % 0 mm 522.0 W/m2 CLR
12:30 -11.6 °C -15.2 °C 34611.7 hPa NW 68.6 km/h 68.6 km/h 64 % 0 mm 531.0 W/m2 CLR
12:35 -11.6 °C -15.1 °C 34611.7 hPa NW 59.5 km/h 59.5 km/h 65 % 0 mm 538.0 W/m2 CLR
12:40 -11.6 °C -15.1 °C 34601.5 hPa NW 68.6 km/h 68.6 km/h 65 % 0 mm 541.0 W/m2 CLR
12:45 -11.4 °C -15.1 °C 34601.5 hPa NW 68.6 km/h 68.6 km/h 64 % 0 mm 557.0 W/m2 CLR
12:50 -11.4 °C -15.1 °C 34601.5 hPa NW 62.6 km/h 62.6 km/h 64 % 0 mm 545.0 W/m2 CLR
12:55 -11.3 °C -15 °C 34591.4 hPa NW 53.6 km/h 53.6 km/h 64 % 0 mm 545.0 W/m2 CLR
13:00 -11.3 °C -14.9 °C 34591.4 hPa NW 75.2 km/h 75.2 km/h 65 % 0 mm 548.0 W/m2 CLR
13:05 -11.3 °C -15 °C 34591.4 hPa NW 74.5 km/h 74.5 km/h 64 % 0 mm 547.0 W/m2 CLR
13:10 -11.2 °C -14.9 °C 34591.4 hPa NW 62.6 km/h 62.6 km/h 63 % 0 mm 548.0 W/m2 CLR
13:15 -11.1 °C -14.7 °C 34577.8 hPa NW 59.5 km/h 59.5 km/h 65 % 0 mm 547.0 W/m2 CLR
13:20 -11.1 °C -14.7 °C 34567.7 hPa NW 68.6 km/h 68.6 km/h 64 % 0 mm 548.0 W/m2 CLR
13:22 -11 °C -14.7 °C 34567.7 hPa NW 71.5 km/h 71.5 km/h 64 % 0 mm 548.0 W/m2 CLR
13:27 -11 °C -14.7 °C 34567.7 hPa NW 71.5 km/h 71.5 km/h 64 % 0 mm 548.0 W/m2 CLR
13:32 -10.9 °C -14.7 °C 34567.7 hPa NW 80.5 km/h 80.5 km/h 63 % 0 mm 547.0 W/m2 CLR
13:37 -10.9 °C -14.7 °C 34554.1 hPa NW 59.5 km/h 59.5 km/h 63 % 0 mm 550.0 W/m2 CLR
13:42 -10.7 °C -14.4 °C 34554.1 hPa NW 59.5 km/h 59.5 km/h 64 % 0 mm 550.0 W/m2 CLR
13:47 -10.7 °C -14.6 °C 34554.1 hPa NW 71.5 km/h 71.5 km/h 62 % 0 mm 540.0 W/m2 CLR
13:57 -10.4 °C -14.3 °C 34544 hPa NW 68.6 km/h 68.6 km/h 63 % 0 mm 555.0 W/m2 CLR
14:02 -10.4 °C -14.2 °C 34544 hPa NW 54.4 km/h 54.4 km/h 63 % 0 mm 533.0 W/m2 CLR
14:07 -10.4 °C -14.3 °C 34544 hPa NW 68.6 km/h 68.6 km/h 62 % 0 mm 524.0 W/m2 CLR
14:12 -10.3 °C -14.3 °C 34544 hPa NW 74.5 km/h 74.5 km/h 62 % 0 mm 445.0 W/m2 CLR
14:17 -10.4 °C -14.3 °C 34533.8 hPa NW 69.8 km/h 69.8 km/h 63 % 0 mm 355.0 W/m2 CLR
14:22 -10.3 °C -14.3 °C 34533.8 hPa NW 80.3 km/h 80.3 km/h 62 % 0 mm 573.0 W/m2 CLR
14:27 -10.2 °C -14.1 °C 34533.8 hPa NW 80.5 km/h 80.5 km/h 63 % 0 mm 478.0 W/m2 CLR
14:32 -10.2 °C -14.2 °C 34533.8 hPa NW 95.8 km/h 95.8 km/h 62 % 0 mm 531.0 W/m2 CLR
14:42 -10.2 °C -14.1 °C 34533.8 hPa NW 65.5 km/h 65.5 km/h 63 % 0 mm 515.0 W/m2 CLR
14:47 -10.1 °C -14 °C 34520.3 hPa NW 74.5 km/h 74.5 km/h 62 % 0 mm 487.0 W/m2 CLR
14:52 -10.1 °C -14 °C 34520.3 hPa NW 68.6 km/h 68.6 km/h 62 % 0 mm 471.0 W/m2 CLR
14:57 -9.9 °C -13.9 °C 34520.3 hPa NW 89.3 km/h 89.3 km/h 62 % 0 mm 468.0 W/m2 CLR
15:02 -9.9 °C -13.9 °C 34520.3 hPa NW 80.5 km/h 80.5 km/h 62 % 0 mm 381.0 W/m2 CLR
15:07 -10.1 °C -13.9 °C 34520.3 hPa NW 80.5 km/h 80.5 km/h 63 % 0 mm 308.0 W/m2 CLR
15:12 -10.2 °C -13.9 °C 34510.1 hPa WNW 74.5 km/h 74.5 km/h 64 % 0 mm 236.0 W/m2 CLR
15:17 -10.2 °C -13.8 °C 34510.1 hPa NW 72.6 km/h 72.6 km/h 65 % 0 mm 264.0 W/m2 CLR
15:22 -10.3 °C -13.8 °C 34520.3 hPa NW 62.6 km/h 62.6 km/h 65 % 0 mm 248.0 W/m2 CLR
15:27 -10.3 °C -14 °C 34520.3 hPa NW 86.4 km/h 86.4 km/h 64 % 0 mm 246.0 W/m2 CLR
15:32 -10.2 °C -13.8 °C 34520.3 hPa NW 65.5 km/h 65.5 km/h 65 % 0 mm 278.0 W/m2 CLR
15:37 -10.1 °C -13.7 °C 34520.3 hPa NW 50.7 km/h 50.7 km/h 65 % 0 mm 299.0 W/m2 CLR
15:42 -10.1 °C -13.7 °C 34520.3 hPa NW 75.2 km/h 75.2 km/h 65 % 0 mm 297.0 W/m2 CLR
15:47 -10 °C -13.8 °C 34520.3 hPa NW 62.6 km/h 62.6 km/h 63 % 0 mm 290.0 W/m2 CLR
15:53 -9.9 °C -13.7 °C 34520.3 hPa NW 77.4 km/h 77.4 km/h 64 % 0 mm 343.0 W/m2 CLR
15:58 -9.8 °C -13.6 °C 34510.1 hPa NW 53.6 km/h 53.6 km/h 64 % 0 mm 325.0 W/m2 CLR
16:03 -9.8 °C -13.7 °C 34520.3 hPa NW 68.6 km/h 68.6 km/h 63 % 0 mm 355.0 W/m2 CLR
16:08 -9.8 °C -13.7 °C 34520.3 hPa NW 74.5 km/h 74.5 km/h 63 % 0 mm 396.0 W/m2 CLR
16:13 -9.8 °C -13.7 °C 34520.3 hPa NW 65.5 km/h 65.5 km/h 63 % 0 mm 336.0 W/m2 CLR
16:18 -9.8 °C -13.7 °C 34520.3 hPa NW 86.4 km/h 86.4 km/h 63 % 0 mm 376.0 W/m2 CLR
16:23 -9.8 °C -13.7 °C 34520.3 hPa NW 80.5 km/h 80.5 km/h 63 % 0 mm 323.0 W/m2 CLR
16:28 -9.8 °C -13.6 °C 34520.3 hPa NW 74.5 km/h 74.5 km/h 64 % 0 mm 281.0 W/m2 CLR
16:33 -9.8 °C -13.6 °C 34520.3 hPa NW 83.4 km/h 83.4 km/h 64 % 0 mm 295.0 W/m2 CLR
16:38 -9.9 °C -13.6 °C 34520.3 hPa NW 59.5 km/h 59.5 km/h 64 % 0 mm 274.0 W/m2 CLR
16:43 -9.9 °C -13.7 °C 34520.3 hPa NW 80.5 km/h 80.5 km/h 64 % 0 mm 262.0 W/m2 CLR
16:48 -9.9 °C -13.6 °C 34520.3 hPa NW 88 km/h 88 km/h 65 % 0 mm 251.0 W/m2 CLR
16:53 -9.9 °C -13.6 °C 34520.3 hPa NW 71.5 km/h 71.5 km/h 65 % 0 mm 100.0 W/m2 CLR
16:58 -10 °C -13.6 °C 34520.3 hPa NW 68.6 km/h 68.6 km/h 65 % 0 mm 223.0 W/m2 CLR
17:03 -10.1 °C -13.7 °C 34520.3 hPa NW 65.5 km/h 65.5 km/h 65 % 0 mm 211.0 W/m2 CLR
17:08 -10.1 °C -13.5 °C 34520.3 hPa NW 89.3 km/h 89.3 km/h 66 % 0 mm 190.0 W/m2 CLR
17:13 -10.1 °C -13.7 °C 34520.3 hPa NW 68.6 km/h 68.6 km/h 65 % 0 mm 167.0 W/m2 CLR
17:18 -10.1 °C -13.6 °C 34510.1 hPa NW 71.5 km/h 71.5 km/h 66 % 0 mm 139.0 W/m2 CLR
17:23 -10.1 °C -13.6 °C 34520.3 hPa NW 95.3 km/h 95.3 km/h 66 % 0 mm 105.0 W/m2 CLR
17:28 -10.1 °C -13.6 °C 34520.3 hPa NW 71.5 km/h 71.5 km/h 66 % 0 mm 86.0 W/m2 CLR
17:33 -10.2 °C -13.7 °C 34520.3 hPa NW 65.5 km/h 65.5 km/h 66 % 0 mm 65.0 W/m2 SCT
17:38 -10.3 °C -13.6 °C 34520.3 hPa NW 77.4 km/h 77.4 km/h 67 % 0 mm 26.0 W/m2 BKN
17:43 -10.3 °C -13.7 °C 34520.3 hPa NW 80.5 km/h 80.5 km/h 67 % 0 mm 21.0 W/m2 BKN
17:48 -10.4 °C -13.6 °C 34533.8 hPa NW 56.6 km/h 56.6 km/h 68 % 0 mm 21.0 W/m2 BKN
17:53 -10.3 °C -13.6 °C 34533.8 hPa NW 86.4 km/h 86.4 km/h 68 % 0 mm 19.0 W/m2 BKN
17:58 -10.4 °C -13.6 °C 34533.8 hPa NW 65.5 km/h 65.5 km/h 68 % 0 mm 18.0 W/m2 BKN
18:03 -10.4 °C -13.6 °C 34533.8 hPa NW 83.4 km/h 83.4 km/h 68 % 0 mm 14.0 W/m2 BKN
18:08 -10.3 °C -13.6 °C 34533.8 hPa NW 68.6 km/h 68.6 km/h 68 % 0 mm 14.0 W/m2 BKN
18:13 -10.3 °C -13.5 °C 34533.8 hPa NW 59.5 km/h 59.5 km/h 68 % 0 mm 9.0 W/m2 BKN
18:18 -10.3 °C -13.6 °C 34533.8 hPa NW 65.5 km/h 65.5 km/h 68 % 0 mm 7.0 W/m2 BKN
18:23 -10.4 °C -13.6 °C 34544 hPa NW 92.4 km/h 92.4 km/h 68 % 0 mm 0.0 W/m2 OVC
18:28 -10.3 °C -13.6 °C 34544 hPa NW 71.5 km/h 71.5 km/h 68 % 0 mm 0.0 W/m2 OVC
18:33 -10.4 °C -13.6 °C 34544 hPa NW 65.5 km/h 65.5 km/h 68 % 0 mm 0.0 W/m2 CLR
18:38 -10.4 °C -13.6 °C 34554.1 hPa NW 74.5 km/h 74.5 km/h 68 % 0 mm 0.0 W/m2 CLR
18:43 -10.3 °C -13.6 °C 34554.1 hPa NW 62.6 km/h 62.6 km/h 68 % 0 mm 0.0 W/m2 CLR
18:48 -10.3 °C -13.6 °C 34554.1 hPa NW 77.7 km/h 77.7 km/h 68 % 0 mm 0.0 W/m2 CLR
18:53 -10.4 °C -13.4 °C 34567.7 hPa NW 68.6 km/h 68.6 km/h 69 % 0 mm 0.0 W/m2 CLR
18:58 -10.3 °C -13.4 °C 34567.7 hPa NW 50.7 km/h 50.7 km/h 69 % 0 mm 0.0 W/m2 CLR
19:03 -10.4 °C -13.4 °C 34567.7 hPa NW 82.9 km/h 82.9 km/h 70 % 0 mm 0.0 W/m2 CLR
19:08 -10.4 °C -13.3 °C 34567.7 hPa NW 80.5 km/h 80.5 km/h 70 % 0 mm 0.0 W/m2 CLR
19:13 -10.3 °C -13.4 °C 34567.7 hPa NW 86.4 km/h 86.4 km/h 69 % 0 mm 0.0 W/m2 CLR
19:18 -10.3 °C -13.3 °C 34567.7 hPa NW 72.6 km/h 72.6 km/h 70 % 0 mm 0.0 W/m2 CLR
19:23 -10.4 °C -13.4 °C 34567.7 hPa NW 62.6 km/h 62.6 km/h 70 % 0 mm 0.0 W/m2 CLR
19:28 -10.4 °C -13.4 °C 34567.7 hPa WNW 62.6 km/h 62.6 km/h 70 % 0 mm 0.0 W/m2 CLR
19:29 -10.4 °C -13.4 °C 34567.7 hPa NW 62.6 km/h 62.6 km/h 70 % 0 mm 0.0 W/m2 CLR
19:34 -10.4 °C -13.4 °C 34567.7 hPa NW 68.6 km/h 68.6 km/h 70 % 0 mm 0.0 W/m2 CLR
19:39 -10.6 °C -13.5 °C 34567.7 hPa WNW 65.5 km/h 65.5 km/h 70 % 0 mm 0.0 W/m2 CLR
19:44 -10.6 °C -13.6 °C 34567.7 hPa WNW 65.5 km/h 65.5 km/h 70 % 0 mm 0.0 W/m2 CLR
19:49 -10.6 °C -13.6 °C 34567.7 hPa WNW 71.5 km/h 71.5 km/h 70 % 0 mm 0.0 W/m2 CLR
19:54 -10.7 °C -13.6 °C 34577.8 hPa WNW 53.6 km/h 53.6 km/h 70 % 0 mm 0.0 W/m2 CLR
19:59 -10.7 °C -13.7 °C 34577.8 hPa WNW 57 km/h 57 km/h 70 % 0 mm 0.0 W/m2 CLR
20:04 -10.7 °C -13.7 °C 34591.4 hPa WNW 54.4 km/h 54.4 km/h 70 % 0 mm 0.0 W/m2 CLR
20:09 -10.7 °C -13.6 °C 34591.4 hPa West 56.6 km/h 56.6 km/h 70 % 0 mm 0.0 W/m2 CLR
20:14 -10.7 °C -13.6 °C 34591.4 hPa West 68.6 km/h 68.6 km/h 70 % 0 mm 0.0 W/m2 CLR
20:19 -10.6 °C -13.6 °C 34591.4 hPa West 68.6 km/h 68.6 km/h 70 % 0 mm 0.0 W/m2 CLR
20:24 -10.6 °C -13.6 °C 34591.4 hPa West 50.7 km/h 51.5 km/h 70 % 0 mm 0.0 W/m2 CLR
20:29 -10.6 °C -13.6 °C 34591.4 hPa West 80.5 km/h 80.5 km/h 70 % 0 mm 0.0 W/m2 CLR
20:34 -10.7 °C -13.6 °C 34577.8 hPa WNW 59.5 km/h 59.5 km/h 70 % 0 mm 0.0 W/m2 CLR
20:39 -10.6 °C -13.6 °C 34577.8 hPa WNW 68.6 km/h 68.6 km/h 70 % 0 mm 0.0 W/m2 CLR
20:44 -10.6 °C -13.5 °C 34577.8 hPa WNW 65.5 km/h 65.5 km/h 70 % 0 mm 0.0 W/m2 CLR
20:49 -10.5 °C -13.6 °C 34591.4 hPa West 56.6 km/h 56.6 km/h 69 % 0 mm 0.0 W/m2 CLR
20:55 -10.4 °C -13.6 °C 34591.4 hPa WNW 80.5 km/h 80.5 km/h 69 % 0 mm 0.0 W/m2 CLR
21:00 -10.4 °C -13.6 °C 34591.4 hPa West 62.6 km/h 62.6 km/h 68 % 0 mm 0.0 W/m2 CLR
21:05 -10.3 °C -13.5 °C 34591.4 hPa West 83.4 km/h 83.4 km/h 68 % 0 mm 0.0 W/m2 CLR
21:10 -10.4 °C -13.6 °C 34591.4 hPa WNW 59.5 km/h 59.5 km/h 68 % 0 mm 0.0 W/m2 CLR
21:15 -10.4 °C -13.6 °C 34601.5 hPa WNW 50.7 km/h 55.7 km/h 68 % 0 mm 0.0 W/m2 CLR
21:20 -10.4 °C -13.6 °C 34601.5 hPa WNW 47.6 km/h 47.6 km/h 68 % 0 mm 0.0 W/m2 CLR
21:25 -10.4 °C -13.5 °C 34601.5 hPa WNW 38.8 km/h 38.8 km/h 69 % 0 mm 0.0 W/m2 CLR
21:30 -10.4 °C -13.6 °C 34601.5 hPa WNW 53.6 km/h 53.6 km/h 68 % 0 mm 0.0 W/m2 CLR
21:35 -10.4 °C -13.6 °C 34611.7 hPa WNW 35.7 km/h 35.7 km/h 68 % 0 mm 0.0 W/m2 CLR
21:40 -10.3 °C -13.7 °C 34611.7 hPa West 41.7 km/h 41.7 km/h 67 % 0 mm 0.0 W/m2 CLR
21:45 -10.4 °C -13.7 °C 34611.7 hPa West 29.8 km/h 29.8 km/h 67 % 0 mm 0.0 W/m2 CLR
21:50 -10.4 °C -13.6 °C 34611.7 hPa West 41.7 km/h 41.7 km/h 68 % 0 mm 0.0 W/m2 CLR
21:55 -10.4 °C -13.6 °C 34611.7 hPa West 38.8 km/h 38.8 km/h 68 % 0 mm 0.0 W/m2 CLR
22:00 -10.4 °C -13.6 °C 34611.7 hPa West 29.8 km/h 29.8 km/h 68 % 0 mm 0.0 W/m2 CLR
22:05 -10.4 °C -13.7 °C 34611.7 hPa West 29.8 km/h 29.8 km/h 68 % 0 mm 0.0 W/m2 CLR
22:10 -10.4 °C -13.7 °C 34611.7 hPa West 38.8 km/h 38.8 km/h 68 % 0 mm 0.0 W/m2 CLR
22:15 -10.4 °C -13.6 °C 34611.7 hPa West 41.7 km/h 41.7 km/h 68 % 0 mm 0.0 W/m2 CLR
22:20 -10.4 °C -13.6 °C 34611.7 hPa West 46.7 km/h 46.7 km/h 68 % 0 mm 0.0 W/m2 CLR
22:25 -10.4 °C -13.7 °C 34611.7 hPa West 35.7 km/h 35.7 km/h 68 % 0 mm 0.0 W/m2 CLR
22:30 -10.5 °C -13.7 °C 34611.7 hPa West 33.6 km/h 33.6 km/h 68 % 0 mm 0.0 W/m2 CLR
22:35 -10.5 °C -13.6 °C 34611.7 hPa West 32.8 km/h 32.8 km/h 69 % 0 mm 0.0 W/m2 CLR
22:40 -10.5 °C -13.6 °C 34611.7 hPa West 35.7 km/h 35.7 km/h 69 % 0 mm 0.0 W/m2 CLR
22:45 -10.4 °C -13.6 °C 34611.7 hPa West 38.8 km/h 38.8 km/h 69 % 0 mm 0.0 W/m2 CLR
22:50 -10.4 °C -13.6 °C 34611.7 hPa West 49.2 km/h 49.2 km/h 69 % 0 mm 0.0 W/m2 CLR
22:55 -10.4 °C -13.5 °C 34601.5 hPa West 44.7 km/h 44.7 km/h 69 % 0 mm 0.0 W/m2 CLR
23:00 -10.4 °C -13.6 °C 34601.5 hPa West 38.8 km/h 38.8 km/h 68 % 0 mm 0.0 W/m2 CLR
23:05 -10.2 °C -13.6 °C 34601.5 hPa West 56.6 km/h 56.6 km/h 67 % 0 mm 0.0 W/m2 CLR
23:10 -10.2 °C -13.7 °C 34601.5 hPa West 47.6 km/h 47.6 km/h 66 % 0 mm 0.0 W/m2 CLR
23:15 -10.2 °C -13.6 °C 34601.5 hPa West 50.7 km/h 50.7 km/h 66 % 0 mm 0.0 W/m2 CLR
23:20 -10.2 °C -13.7 °C 34601.5 hPa West 68.6 km/h 68.6 km/h 66 % 0 mm 0.0 W/m2 CLR
23:25 -10.2 °C -13.7 °C 34601.5 hPa West 59.5 km/h 59.5 km/h 66 % 0 mm 0.0 W/m2 CLR
23:30 -10.2 °C -13.6 °C 34601.5 hPa West 50.7 km/h 50.7 km/h 67 % 0 mm 0.0 W/m2 CLR
23:35 -10.2 °C -13.6 °C 34601.5 hPa West 56.6 km/h 56.6 km/h 67 % 0 mm 0.0 W/m2 CLR
23:40 -10.2 °C -13.6 °C 34601.5 hPa West 54.4 km/h 54.4 km/h 67 % 0 mm 0.0 W/m2 CLR
23:45 -10.2 °C -13.7 °C 34601.5 hPa West 50.7 km/h 50.7 km/h 66 % 0 mm 0.0 W/m2 CLR
23:50 -10.3 °C -13.6 °C 34601.5 hPa WNW 35.7 km/h 35.7 km/h 67 % 0 mm 0.0 W/m2 CLR
23:55 -10.4 °C -13.7 °C 34601.5 hPa WNW 41.4 km/h 41.4 km/h 67 % 0 mm 0.0 W/m2 CLR
Lo Temps de Massalio
Compliments of Weather Underground - 1.25 mb